Terminal Aerodrome Forecast
Issued by NWS

Home | Current Version | Previous Version | Text Only | Print | Product List | Glossary On
Versions: 1 2 3 4 5 6 7 8 9 10 11 12 13 14 15 16 17 18 19 20 21
000
FTUS42 KFFC 192329
TAFRYY
TAF
KRYY 192329Z 2000/2024 33008KT P6SM SKC
     FM200100 34005KT P6SM SKC
     FM200600 36003KT 6SM BR SKC
     FM201400 10005KT P6SM FEW250
     FM202000 14005KT P6SM FEW250
      AMD NOT SKED 2004/2012=

USA.gov is the U.S. government's official web portal to all federal, state and local government web resources and services.